Flight Track Log - Related Links

Times and Time Zones

All times are in EDT time to prevent confusion due to time zone crossing. See the UAL1067 flight status page for this flight to view local times or setup timezone preferences in your user account.

Time Position Orientation Groundspeed Altitude Reporting Facility
EDT Latitude Longitude Course Direction KTS MPH feet Rate Location/Type
Sun 02:18:31 PM 36.0772 -115.1039 82° East 178 205 3,200  Level Los Angeles Center
Sun 02:19:03 PM 36.0772 -115.0697 90° East 198 228 3,800 1,167 Climbing Los Angeles Center
Sun 02:19:07 PM 36.0761 -115.0592 97° East 216 249 3,900 2,032 Climbing Los Angeles Center
Sun 02:20:05 PM 36.0767 -114.9867 89° East 229 264 5,900 1,900 Climbing Los Angeles Center
Sun 02:21:07 PM 36.0858 -114.8922 83° East 275 316 7,700 1,536 Climbing Los Angeles Center
Sun 02:22:00 PM 36.3379 -114.4265 85° East  Level Estimated
Sun 02:22:10 PM 36.1056 -114.7678 79° East 304 350 9,100  Level Los Angeles Center
Sun 02:23:00 PM 36.3213 -114.2690 97° East  Level FlightAware Approximate
Sun 02:23:12 PM 36.1242 -114.6644 77° East 307 353 11,500  Level Los Angeles Center
Sun 02:24:00 PM 36.3731 -114.1216 82° East  Level Estimated
Sun 02:24:14 PM 36.1403 -114.5614 79° East 307 353 14,300  Level Los Angeles Center
Sun 02:25:16 PM 36.1581 -114.4544 78° East 314 361 16,200 2,032 Climbing Los Angeles Center
Sun 02:26:18 PM 36.1742 -114.3378 80° East 337 388 18,500 1,984 Climbing Los Angeles Center
Sun 02:27:20 PM 36.1964 -114.2228 77° East 342 394 20,300 1,887 Climbing Los Angeles Center
Sun 02:28:22 PM 36.2133 -114.0736 82° East 361 415 22,400 1,839 Climbing Los Angeles Center
Sun 02:29:24 PM 36.2275 -113.9458 82° East 371 427 24,100 1,548 Climbing Los Angeles Center
Sun 02:30:26 PM 36.2439 -113.8178 81° East 376 433 25,600 1,104 Climbing Los Angeles Center
Sun 02:31:29 PM 36.2583 -113.6825 82° East 390 449 26,400 576 Climbing Los Angeles Center
Sun 02:32:31 PM 36.2750 -113.5358 82° East 420 483 26,800 339 Climbing Los Angeles Center
Sun 02:33:33 PM 36.2931 -113.3775 82° East 454 522 27,100 435 Climbing Los Angeles Center
Sun 02:34:35 PM 36.3206 -113.1986 79° East 484 557 27,700 726 Climbing Los Angeles Center
Sun 02:35:37 PM 36.3792 -113.0414 65° Northeast 500 575 28,600 1,161 Climbing Los Angeles Center
Sun 02:36:39 PM 36.4481 -112.8553 65° Northeast 499 574 30,100 1,161 Climbing Los Angeles Center
Sun 02:37:41 PM 36.5061 -112.7011 65° Northeast 496 571 31,000 435 Climbing Los Angeles Center
Sun 02:38:43 PM 36.5622 -112.5453 66° East 497 572 31,000 432 Level Los Angeles Center
Sun 02:39:46 PM 36.6206 -112.3878 65° Northeast 501 577 31,900 960 Climbing Los Angeles Center
Sun 02:40:48 PM 36.6772 -112.2322 66° East 499 574 33,000 532 Climbing Los Angeles Center
Sun 02:41:50 PM 36.7442 -112.0472 66° East 493 567 33,000  Level Los Angeles Center
Sun 02:42:52 PM 36.7997 -111.8906 66° East 495 570 33,000  Level Los Angeles Center
Sun 02:43:54 PM 36.8547 -111.7364 66° East 490 564 33,000  Level Los Angeles Center
Sun 02:44:56 PM 36.9100 -111.5817 66° East 491 565 33,000  Level Los Angeles Center
Sun 02:45:58 PM 36.9650 -111.4281 66° East 488 562 33,000  Level Los Angeles Center
Sun 02:47:00 PM 37.0306 -111.2422 66° East 488 562 33,000  Level Los Angeles Center
Sun 02:48:23 PM 37.0964 -111.0558 66° East 492 566 33,000  Level Denver Center
Sun 02:49:25 PM 37.1628 -110.8661 66° East 495 570 33,000  Level Denver Center
Sun 02:50:27 PM 37.2136 -110.7103 68° East 490 564 33,000  Level Denver Center
Sun 02:51:29 PM 37.2689 -110.5511 66° East 495 570 33,000  Level Denver Center
Sun 02:52:32 PM 37.3222 -110.3914 67° East 498 573 33,000  Level Denver Center
Sun 02:53:34 PM 37.3772 -110.2328 66° East 497 572 33,000  Level Denver Center
Sun 02:54:36 PM 37.4361 -110.0603 67° East 496 571 33,000  Level Denver Center
Sun 02:55:38 PM 37.4961 -109.8819 67° East 495 570 33,000  Level Denver Center
Sun 02:56:40 PM 37.5478 -109.7289 67° East 495 570 33,000  Level Denver Center
Sun 02:57:42 PM 37.6067 -109.5503 67° East 493 567 33,000  Level Denver Center
Sun 02:58:44 PM 37.6567 -109.3964 68° East 494 568 33,000  Level Denver Center
Sun 02:59:46 PM 37.7064 -109.2431 68° East 493 567 33,000  Level Denver Center
Sun 03:00:48 PM 37.7644 -109.0653 68° East 490 564 33,000  Level Denver Center
Sun 03:01:50 PM 37.8144 -108.9131 67° East 490 564 33,000  Level Denver Center
Sun 03:02:52 PM 37.8794 -108.7406 64° Northeast 487 560 33,000  Level Denver Center
Sun 03:03:54 PM 37.9356 -108.5919 64° Northeast 486 559 33,000  Level Denver Center
Sun 03:04:56 PM 38.0078 -108.4222 62° Northeast 489 563 33,000  Level Denver Center
Sun 03:05:58 PM 38.0906 -108.2733 55° Northeast 488 562 33,000  Level Denver Center
Sun 03:07:00 PM 38.1450 -108.1253 65° Northeast 486 559 33,000  Level Denver Center
Sun 03:08:02 PM 38.2092 -107.9506 65° Northeast 490 564 33,000  Level Denver Center
Sun 03:09:05 PM 38.2628 -107.8017 65° Northeast 487 560 33,000  Level Denver Center
Sun 03:10:07 PM 38.3161 -107.6536 65° Northeast 484 557 33,000  Level Denver Center
Sun 03:11:09 PM 38.3781 -107.4783 66° East 484 557 33,000  Level Denver Center
Sun 03:12:11 PM 38.4294 -107.3289 66° East 485 558 33,000  Level Denver Center
Sun 03:13:13 PM 38.4844 -107.1775 65° Northeast 483 556 33,000  Level Denver Center
Sun 03:14:15 PM 38.5494 -106.9925 66° East 479 551 33,000  Level Denver Center
Sun 03:15:17 PM 38.6028 -106.8372 66° East 478 550 33,000  Level Denver Center
Sun 03:16:19 PM 38.6564 -106.6828 66° East 479 551 33,000  Level Denver Center
Sun 03:17:21 PM 38.7106 -106.5253 66° East 483 556 33,000  Level Denver Center
Sun 03:18:23 PM 38.7644 -106.3667 66° East 486 559 33,000  Level Denver Center
Sun 03:19:25 PM 38.8186 -106.2078 66° East 487 560 33,000  Level Denver Center
Sun 03:20:27 PM 38.8800 -106.0292 66° East 482 555 33,000  Level Denver Center
Sun 03:21:29 PM 38.9414 -105.8778 62° Northeast 481 554 33,000  Level Denver Center
Sun 03:22:31 PM 39.0386 -105.7556 44° Northeast 490 564 33,000  Level Denver Center
Sun 03:23:33 PM 39.1597 -105.6178 41° Northeast 487 560 33,000  Level Denver Center
Sun 03:24:36 PM 39.2372 -105.4750 55° Northeast 488 562 33,000  Level Denver Center
Sun 03:25:38 PM 39.2889 -105.3136 67° East 483 556 33,000 145 Level Denver Center
Sun 03:26:40 PM 39.3367 -105.1500 69° East 487 560 33,300 581 Climbing Denver Center
Sun 03:27:42 PM 39.3831 -104.9864 70° East 488 562 34,200 823 Climbing Denver Center
Sun 03:28:44 PM 39.4339 -104.8017 70° East 498 573 35,000 387 Climbing Denver Center
Sun 03:29:46 PM 39.4842 -104.6225 70° East 496 571 35,000  Level Denver Center
Sun 03:30:48 PM 39.5308 -104.4561 70° East 495 570 35,000  Level Denver Center
Sun 03:31:50 PM 39.5756 -104.2992 70° East 493 567 35,000  Level Denver Center
Sun 03:32:52 PM 39.6306 -104.0978 70° East 497 572 35,000  Level Denver Center
Sun 03:33:54 PM 39.6764 -103.9294 70° East 497 572 35,000  Level Denver Center
Sun 03:34:56 PM 39.7231 -103.7606 70° East 498 573 35,000  Level Denver Center
Sun 03:35:58 PM 39.7686 -103.5944 70° East 491 565 35,000  Level Denver Center
Sun 03:37:00 PM 39.8144 -103.4239 71° East 499 574 35,000  Level Denver Center
Sun 03:38:02 PM 39.8606 -103.2542 70° East 499 574 35,000  Level Denver Center
Sun 03:39:04 PM 39.9147 -103.0500 71° East 499 574 35,000  Level Denver Center
Sun 03:40:06 PM 39.9597 -102.8786 71° East 499 574 35,000  Level Denver Center
Sun 03:41:08 PM 40.0053 -102.7078 71° East 501 577 35,000  Level Denver Center
Sun 03:42:10 PM 40.0483 -102.5381 72° East 499 574 35,000  Level Denver Center
Sun 03:43:12 PM 40.0981 -102.3481 71° East 497 572 35,000  Level Denver Center
Sun 03:44:14 PM 40.1397 -102.1831 72° East 500 575 35,000  Level Denver Center
Sun 03:45:16 PM 40.1881 -101.9908 72° East 498 573 35,000  Level Denver Center
Sun 03:46:18 PM 40.2297 -101.8272 72° East 497 572 35,000  Level Denver Center
Sun 03:47:20 PM 40.2792 -101.6361 71° East 498 573 35,000  Level Denver Center
Sun 03:48:22 PM 40.3183 -101.4736 72° East 492 566 35,000  Level Denver Center
Sun 03:49:24 PM 40.3650 -101.2836 72° East 491 565 35,000  Level Denver Center
Sun 03:50:26 PM 40.4042 -101.1189 73° East 495 570 35,000  Level Denver Center
Sun 03:51:28 PM 40.4528 -100.9278 71° East 497 572 35,000  Level Denver Center
Sun 03:52:30 PM 40.5086 -100.7703 65° Northeast 501 577 35,000  Level Denver Center
Sun 03:53:32 PM 40.5750 -100.5864 65° Northeast 504 580 35,000  Level Denver Center
Sun 03:54:34 PM 40.6331 -100.4278 64° Northeast 508 585 35,000  Level Denver Center
Sun 03:55:36 PM 40.7003 -100.2417 64° Northeast 508 585 35,000  Level Denver Center
Sun 03:56:38 PM 40.7561 -100.0817 65° Northeast 506 582 35,000  Level Denver Center
Sun 03:57:40 PM 40.8233 -99.8950 65° Northeast 506 582 35,000  Level Denver Center
Sun 03:58:42 PM 40.8800 -99.7342 65° Northeast 504 580 35,000  Level Denver Center
Sun 03:59:44 PM 40.9383 -99.5661 65° Northeast 503 579 35,000  Level Denver Center
Sun 04:00:46 PM 40.9819 -99.4325 67° East 499 574 35,000  Level Denver Center
Sun 04:01:48 PM 41.0308 -99.2247 73° East 493 567 35,000  Level Denver Center
Sun 04:02:50 PM 41.0781 -99.0278 72° East 492 566 35,000  Level Denver Center
Sun 04:03:52 PM 41.1189 -98.8600 72° East 498 573 35,000  Level Denver Center
Sun 04:04:54 PM 41.1622 -98.6819 72° East 501 577 35,000  Level Denver Center
Sun 04:05:56 PM 41.2122 -98.4719 72° East 499 574 35,000  Level Denver Center
Sun 04:07:10 PM 41.2617 -98.2619 73° East 497 572 35,000  Level Minneapolis Center
Sun 04:08:12 PM 41.3014 -98.0900 73° East 492 566 35,000  Level Minneapolis Center
Sun 04:09:14 PM 41.3453 -97.9061 72° East 496 571 35,000  Level Minneapolis Center
Sun 04:10:16 PM 41.3850 -97.7325 73° East 493 567 35,000  Level Minneapolis Center
Sun 04:11:18 PM 41.4258 -97.5575 73° East 495 570 35,000  Level Minneapolis Center
Sun 04:12:20 PM 41.4653 -97.3814 73° East 496 571 35,000  Level Minneapolis Center
Sun 04:13:22 PM 41.5050 -97.2039 73° East 498 573 35,000  Level Minneapolis Center
Sun 04:14:24 PM 41.5528 -96.9903 73° East 500 575 35,000  Level Minneapolis Center
Sun 04:15:26 PM 41.5928 -96.8100 73° East 504 580 35,000  Level Minneapolis Center
Sun 04:16:29 PM 41.6317 -96.6306 74° East 502 578 35,000  Level Minneapolis Center
Sun 04:17:31 PM 41.6706 -96.4506 74° East 501 577 35,000  Level Minneapolis Center
Sun 04:18:33 PM 41.7103 -96.2697 74° East 502 578 35,000  Level Minneapolis Center
Sun 04:19:35 PM 41.7492 -96.0889 74° East 501 577 35,000  Level Minneapolis Center
Sun 04:20:37 PM 41.7867 -95.9075 74° East 501 577 35,000  Level Minneapolis Center
Sun 04:21:39 PM 41.8239 -95.7272 74° East 500 575 35,000  Level Minneapolis Center
Sun 04:22:41 PM 41.8700 -95.5089 74° East 503 579 35,000  Level Minneapolis Center
Sun 04:23:43 PM 41.9067 -95.3258 75° East 506 582 35,000  Level Minneapolis Center
Sun 04:24:45 PM 41.9433 -95.1428 75° East 507 583 35,000  Level Minneapolis Center
Sun 04:25:47 PM 41.9806 -94.9586 75° East 510 587 35,000  Level Minneapolis Center
Sun 04:26:49 PM 42.0181 -94.7722 75° East 515 593 35,000  Level Minneapolis Center
Sun 04:27:51 PM 42.0556 -94.5889 75° East 509 586 35,000  Level Minneapolis Center
Sun 04:28:54 PM 42.0911 -94.4061 75° East 507 583 35,000  Level Minneapolis Center
Sun 04:29:56 PM 42.1333 -94.1892 75° East 501 577 35,000  Level Minneapolis Center
Sun 04:30:58 PM 42.1669 -94.0083 76° East 499 574 35,000  Level Minneapolis Center
Sun 04:32:00 PM 42.2003 -93.8322 76° East 501 577 35,000  Level Minneapolis Center
Sun 04:33:02 PM 42.2350 -93.6522 75° East 501 577 35,000  Level Minneapolis Center
Sun 04:34:04 PM 42.2706 -93.4717 75° East 502 578 35,000  Level Minneapolis Center
Sun 04:35:06 PM 42.3108 -93.2511 76° East 508 585 35,000  Level Minneapolis Center
Sun 04:36:08 PM 42.3442 -93.0672 76° East 509 586 35,000  Level Minneapolis Center
Sun 04:37:10 PM 42.3792 -92.8831 76° East 511 588 35,000  Level Minneapolis Center
Sun 04:38:12 PM 42.4125 -92.6967 76° East 514 592 35,000  Level Minneapolis Center
Sun 04:39:14 PM 42.4453 -92.5100 77° East 515 593 35,000  Level Minneapolis Center
Sun 04:40:16 PM 42.4839 -92.2881 77° East 512 589 35,000 -242 Level Minneapolis Center
Sun 04:41:18 PM 42.5158 -92.1025 77° East 512 589 34,500 -677 Descending Minneapolis Center
Sun 04:42:20 PM 42.5233 -91.9106 87° East 521 600 33,600 -720 Descending Minneapolis Center
Sun 04:43:23 PM 42.5244 -91.7161 89° East 526 605 33,000 -816 Descending Minneapolis Center
Sun 04:44:25 PM 42.5253 -91.4844 90° East 527 606 31,900 -1,016 Descending Minneapolis Center
Sun 04:45:27 PM 42.5261 -91.2886 90° East 530 610 30,900 -919 Descending Minneapolis Center
Sun 04:46:29 PM 42.5264 -91.0903 90° East 534 615 30,000 -919 Descending Minneapolis Center
Sun 04:47:31 PM 42.5256 -90.8917 90° East 534 615 29,000 -1,065 Descending Minneapolis Center
Sun 04:48:33 PM 42.5250 -90.6547 90° East 531 611 27,800 -1,036 Descending Minneapolis Center
Sun 04:49:50 PM 42.5242 -90.4256 90° East 520 598 26,600 -950 Descending Chicago Center
Sun 04:50:52 PM 42.5097 -90.2383 96° East 509 586 25,600 -1,008 Descending Chicago Center
Sun 04:51:55 PM 42.4931 -90.0167 96° East 501 577 24,500 -1,008 Descending Chicago Center
Sun 04:52:57 PM 42.4803 -89.8339 95° East 496 571 23,500 -968 Descending Chicago Center
Sun 04:53:59 PM 42.4678 -89.6539 95° East 486 559 22,500 -968 Descending Chicago Center
Sun 04:55:01 PM 42.4561 -89.4761 95° East 481 554 21,500 -968 Descending Chicago Center
Sun 04:56:03 PM 42.4422 -89.3019 96° East 473 544 20,500 -1,452 Descending Chicago Center
Sun 04:57:05 PM 42.4267 -89.1131 96° East 463 533 18,500 -2,032 Descending Chicago Center
Sun 04:58:07 PM 42.4133 -88.9492 96° East 448 516 16,300 -2,323 Descending Chicago Center
Sun 04:59:09 PM 42.3972 -88.7578 96° East 431 496 13,700 -2,323 Descending Chicago Center
Sun 05:00:11 PM 42.3853 -88.6058 96° East 412 474 11,500 -1,790 Descending Chicago Center
Sun 05:01:13 PM 42.3678 -88.4631 99° East 390 449 10,000 -726 Descending Chicago Center
Sun 05:02:15 PM 42.3214 -88.3528 120° Southeast 347 399 10,000  Level Chicago Center
Sun 05:03:17 PM 42.2597 -88.2525 130° Southeast 347 399 10,000  Level Chicago Center
Sun 05:04:20 PM 42.1983 -88.1497 129° Southeast 349 402 10,000  Level Chicago Center
Sun 05:05:22 PM 42.1108 -88.0497 140° Southeast 347 399 10,000 -579 Level Chicago Center
Sun 05:06:14 PM 42.1000 -87.9500 98° East 339 390 8,900 -1,302 Descending Chicago TRACON
Sun 05:07:08 PM 42.1000 -87.8333 90° East 335 386 7,700 -1,100 Descending Chicago TRACON
Sun 05:08:14 PM 42.0833 -87.7000 100° East 311 358 6,700 -1,000 Descending Chicago TRACON
Sun 05:09:14 PM 42.0833 -87.6000 90° East 291 335 5,600 -1,200 Descending Chicago TRACON
Sun 05:10:14 PM 42.0833 -87.4833 90° East 295 339 4,300 -762 Descending Chicago TRACON
Sun 05:11:20 PM 42.0667 -87.4167 109° East 245 282 4,000 -150 Descending Chicago TRACON
Sun 05:12:14 PM 42.0167 -87.4167 180° South 207 238 4,000  Level Chicago TRACON
Sun 05:13:20 PM 42.0000 -87.5000 255° West 202 232 4,000  Level Chicago TRACON
Sun 05:14:20 PM 42.0000 -87.5667 270° West 207 238 4,000  Level Chicago TRACON
Sun 05:15:15 PM 42.0000 -87.6500 270° West 204 235 4,000 -365 Level Chicago TRACON
Sun 05:16:15 PM 42.0000 -87.7167 270° West 180 207 3,300 -800 Descending Chicago TRACON
Sun 05:17:15 PM 42.0000 -87.7833 270° West 174 200 2,400 -905 Descending Chicago TRACON
Sun 05:18:21 PM 42.0000 -87.8500 270° West 152 175 1,400 -909 Descending Chicago TRACON

Login

Don't have an account? Register now (free) for customized features, flight alerts, and more!